Terminal Aerodrome Forecast
Issued by NWS

Home | Current Version | Previous Version | Text Only | Print | Product List | Glossary On
Versions: 1 2 3 4 5 6 7 8 9 10 11 12 13 14 15 16
206
FTUS42 KTBW 222331
TAFPIE
TAF
KPIE 222331Z 2300/2324 VRB03KT P6SM FEW030 SCT100 BKN250
     FM231200 18005KT P6SM VCTS SCT025CB BKN050
     FM231500 22008KT P6SM VCTS SCT040CB BKN100
     FM232200 25007KT P6SM SCT050 BKN200=

USA.gov is the U.S. government's official web portal to all federal, state and local government web resources and services.